Time;durP1;ratioP1;P1;durP2;ratioP2;P2;SDS_P1;SDS_P2;PMS_P1;PMS_P2;Temp;Humidity;BMP_temperature;BMP_pressure;BME280_temperature;BME280_humidity;BME280_pressure;Samples;Min_cycle;Max_cycle;Signal;HPM_P1;HPM_P2
2022/11/04 00:01:45;;;;;;;11.80;5.85;;;10.70;99.90;;;;;;5031916;28;20018;-45
2022/11/04 00:04:12;;;;;;;11.13;5.65;;;10.70;99.90;;;;;;5031652;28;20034;-46
2022/11/04 00:06:38;;;;;;;13.10;6.00;;;10.70;99.90;;;;;;5032147;28;20041;-46
2022/11/04 00:09:06;;;;;;;13.95;6.38;;;10.70;99.90;;;;;;5032434;28;20305;-46
2022/11/04 00:14:16;;;;;;;9.18;5.88;;;10.70;99.90;;;;;;5031586;28;20178;-45
2022/11/04 00:19:26;;;;;;;16.60;7.50;;;10.60;99.90;;;;;;5032509;28;20079;-45
2022/11/04 00:30:08;;;;;;;10.45;6.47;;;10.60;99.90;;;;;;5032229;28;20156;-48
2022/11/04 00:35:19;;;;;;;12.68;6.57;;;10.60;99.90;;;;;;5031329;28;20108;-45
2022/11/04 00:37:45;;;;;;;17.63;7.28;;;10.60;99.90;;;;;;5031257;28;20021;-46
2022/11/04 00:40:13;;;;;;;24.65;7.82;;;10.60;99.90;;;;;;5031253;28;20032;-46
2022/11/04 00:42:39;;;;;;;12.95;6.90;;;10.60;99.90;;;;;;5030887;28;20082;-45
2022/11/04 00:45:05;;;;;;;10.75;7.05;;;10.60;99.90;;;;;;5031013;28;20104;-46
2022/11/04 00:47:31;;;;;;;13.40;7.35;;;10.50;99.90;;;;;;5038382;28;20021;-46
2022/11/04 00:49:57;;;;;;;11.75;7.35;;;10.50;99.90;;;;;;5047814;28;20029;-45
2022/11/04 00:52:22;;;;;;;12.18;6.45;;;10.50;99.90;;;;;;5050570;28;20027;-45
2022/11/04 00:54:48;;;;;;;17.95;7.78;;;10.60;99.90;;;;;;5051199;28;20509;-46
2022/11/04 00:57:14;;;;;;;9.18;7.13;;;10.50;99.90;;;;;;5050980;28;20044;-45
2022/11/04 00:59:40;;;;;;;11.88;6.32;;;10.50;99.90;;;;;;5050956;28;20062;-46
2022/11/04 01:02:07;;;;;;;14.40;6.97;;;10.60;99.90;;;;;;5050484;28;20375;-45
2022/11/04 01:04:33;;;;;;;13.05;7.57;;;10.50;99.90;;;;;;5051239;28;20025;-46
2022/11/04 01:06:59;;;;;;;12.43;6.70;;;10.60;99.90;;;;;;5032943;28;20040;-48
2022/11/04 01:09:24;;;;;;;10.32;6.88;;;10.60;99.90;;;;;;5050694;28;20333;-46
2022/11/04 01:11:50;;;;;;;13.15;6.68;;;10.60;99.90;;;;;;5050401;28;20060;-46
2022/11/04 01:14:15;;;;;;;12.65;6.20;;;10.60;99.90;;;;;;5050668;28;20413;-46
2022/11/04 01:16:42;;;;;;;13.43;6.70;;;10.60;99.90;;;;;;5021946;28;20466;-45
2022/11/04 01:19:08;;;;;;;11.13;6.63;;;10.70;99.90;;;;;;5039701;28;20033;-48
2022/11/04 01:21:34;;;;;;;10.38;6.85;;;10.60;99.90;;;;;;5049887;28;20033;-46
2022/11/04 01:23:59;;;;;;;10.68;6.22;;;10.60;99.90;;;;;;5032623;28;20074;-47
2022/11/04 01:26:27;;;;;;;10.13;6.57;;;10.60;99.90;;;;;;5050545;28;20364;-47
2022/11/04 01:28:54;;;;;;;15.43;6.22;;;10.70;99.90;;;;;;5050751;28;20033;-49
2022/11/04 01:31:26;;;;;;;12.45;6.30;;;10.60;99.90;;;;;;5049912;28;20036;-46
2022/11/04 01:33:53;;;;;;;14.13;7.38;;;10.70;99.90;;;;;;5050110;28;20112;-46
2022/11/04 01:36:19;;;;;;;9.98;6.40;;;10.60;99.90;;;;;;5050160;28;20322;-46
2022/11/04 01:38:45;;;;;;;11.68;6.32;;;10.70;99.90;;;;;;5050468;28;20401;-46
2022/11/04 01:41:17;;;;;;;14.60;6.60;;;10.70;99.90;;;;;;5050154;28;20021;-45
2022/11/04 01:43:53;;;;;;;11.77;6.60;;;10.70;99.90;;;;;;5050181;28;20028;-45
2022/11/04 01:46:28;;;;;;;12.57;6.90;;;10.60;99.90;;;;;;5049760;28;20036;-46
2022/11/04 01:48:58;;;;;;;12.07;6.80;;;10.60;99.90;;;;;;5038048;28;20074;-46
2022/11/04 01:51:24;;;;;;;15.15;7.13;;;10.60;99.90;;;;;;5012168;28;20075;-48
2022/11/04 01:53:53;;;;;;;16.35;6.82;;;10.60;99.90;;;;;;5038051;28;20037;-46
2022/11/04 01:56:19;;;;;;;13.43;6.75;;;10.70;99.90;;;;;;5049803;28;20032;-46
2022/11/04 01:58:49;;;;;;;12.43;6.65;;;10.70;99.90;;;;;;5050092;28;20072;-47
2022/11/04 02:01:15;;;;;;;11.77;6.47;;;10.70;99.90;;;;;;5049514;28;20040;-45
2022/11/04 02:03:54;;;;;;;13.13;6.82;;;10.70;99.90;;;;;;5041314;28;20028;-46
2022/11/04 02:06:20;;;;;;;11.98;7.45;;;10.70;99.90;;;;;;5040907;28;20036;-46
2022/11/04 02:08:47;;;;;;;13.13;7.18;;;10.70;99.90;;;;;;5049533;28;20021;-46
2022/11/04 02:12:48;;;;;;;16.08;7.82;;;10.70;99.90;;;;;;5049936;28;20025;-46
2022/11/04 02:13:58;;;;;;;12.82;6.75;;;10.60;99.90;;;;;;5049242;28;20029;-47
2022/11/04 02:16:44;;;;;;;15.63;7.72;;;10.60;99.90;;;;;;5049202;28;20398;-46
2022/11/04 02:19:56;;;;;;;13.63;7.78;;;10.60;99.90;;;;;;5039096;28;20030;-46
2022/11/04 02:22:46;;;;;;;11.57;7.97;;;10.40;99.90;;;;;;5049045;28;20386;-46
2022/11/04 02:25:54;;;;;;;16.77;8.53;;;10.40;99.90;;;;;;5049659;28;20071;-46
2022/11/04 02:28:44;;;;;;;14.90;7.65;;;10.40;99.90;;;;;;5040992;28;20489;-48
2022/11/04 02:31:19;;;;;;;15.03;8.53;;;10.30;99.90;;;;;;5048865;28;20309;-46
2022/11/04 02:33:53;;;;;;;13.35;7.50;;;10.30;99.90;;;;;;5032504;28;20443;-47
2022/11/04 02:36:58;;;;;;;13.02;8.20;;;10.30;99.90;;;;;;5048586;28;20537;-46
2022/11/04 02:39:53;;;;;;;17.40;8.95;;;10.30;99.90;;;;;;5031338;28;20461;-46
2022/11/04 02:42:26;;;;;;;14.05;8.85;;;10.30;99.90;;;;;;5048601;28;20473;-46
2022/11/04 02:45:11;;;;;;;16.35;7.95;;;10.30;99.90;;;;;;5049093;28;20017;-46
2022/11/04 02:47:42;;;;;;;25.10;10.13;;;10.30;99.90;;;;;;5048931;28;20051;-47
2022/11/04 02:50:11;;;;;;;;;;;10.30;99.90;;;;;;5049074;28;20238;-46
2022/11/04 02:52:44;;;;;;;19.80;9.40;;;10.30;99.90;;;;;;5048511;28;19947;-46
2022/11/04 02:55:18;;;;;;;21.33;10.45;;;10.20;99.90;;;;;;5048951;28;20449;-48
2022/11/04 02:57:47;;;;;;;20.00;11.38;;;10.20;99.90;;;;;;5031258;28;20033;-47
2022/11/04 03:00:13;;;;;;;22.38;12.05;;;10.20;99.90;;;;;;5048789;28;20029;-47
2022/11/04 03:02:41;;;;;;;20.67;10.73;;;10.10;99.90;;;;;;5041903;28;20017;-47
2022/11/04 03:05:11;;;;;;;20.55;11.20;;;10.00;99.90;;;;;;5040487;28;20058;-47
2022/11/04 03:07:40;;;;;;;19.10;12.07;;;10.00;99.90;;;;;;5048847;28;20029;-48
2022/11/04 03:10:22;;;;;;;24.20;12.85;;;9.90;99.90;;;;;;5048656;28;20111;-47
2022/11/04 03:12:57;;;;;;;25.63;13.10;;;9.90;99.90;;;;;;5048069;28;20037;-46
2022/11/04 03:15:27;;;;;;;29.13;12.88;;;10.00;99.90;;;;;;5048442;28;20085;-47
2022/11/04 03:18:17;;;;;;;23.45;12.63;;;10.00;99.90;;;;;;5020850;28;20077;-46
2022/11/04 03:20:45;;;;;;;24.77;13.20;;;10.00;99.90;;;;;;5037988;28;20083;-47
2022/11/04 03:23:11;;;;;;;32.72;14.18;;;10.00;99.90;;;;;;5048165;28;20025;-46
2022/11/04 03:25:46;;;;;;;29.27;13.60;;;9.90;99.90;;;;;;5048587;28;20025;-47
2022/11/04 03:28:23;;;;;;;32.42;14.48;;;9.90;99.90;;;;;;5048559;28;20330;-48
2022/11/04 03:30:51;;;;;;;29.52;14.43;;;9.90;99.90;;;;;;5048458;28;20033;-46
2022/11/04 03:33:22;;;;;;;26.77;13.43;;;9.90;99.90;;;;;;5047575;28;20037;-48
2022/11/04 03:35:47;;;;;;;23.88;13.90;;;9.90;99.90;;;;;;5036749;28;20381;-46
2022/11/04 03:38:13;;;;;;;27.13;13.23;;;10.00;99.90;;;;;;5046894;28;20601;-47
2022/11/04 03:40:39;;;;;;;28.33;13.18;;;10.00;99.90;;;;;;5048131;28;20494;-47
2022/11/04 03:43:23;;;;;;;32.88;14.88;;;10.00;99.90;;;;;;5047838;28;20356;-47
2022/11/04 03:45:49;;;;;;;29.27;14.82;;;10.00;99.90;;;;;;5048397;28;20449;-47
2022/11/04 03:48:15;;;;;;;25.17;12.80;;;10.00;99.90;;;;;;5048137;28;20021;-48
2022/11/04 03:50:43;;;;;;;32.53;13.93;;;10.00;99.90;;;;;;5048279;28;20025;-47
2022/11/04 03:53:11;;;;;;;35.42;15.13;;;10.00;99.90;;;;;;5048215;28;20076;-47
2022/11/04 03:55:47;;;;;;;31.90;15.07;;;9.90;99.90;;;;;;5030282;28;20028;-50
2022/11/04 03:58:50;;;;;;;40.53;16.60;;;9.90;99.90;;;;;;5048091;28;20490;-47
2022/11/04 04:01:43;;;;;;;39.33;15.85;;;9.90;99.90;;;;;;5010146;28;20033;-47
2022/11/04 04:04:32;;;;;;;39.25;16.83;;;9.90;99.90;;;;;;5033197;28;20025;-47
2022/11/04 04:07:08;;;;;;;39.03;17.10;;;9.90;99.90;;;;;;5043776;28;20036;-46
2022/11/04 04:09:48;;;;;;;49.58;18.52;;;9.90;99.90;;;;;;5051653;28;20079;-47
2022/11/04 04:12:23;;;;;;;37.83;18.33;;;10.00;99.90;;;;;;5033223;28;20484;-46
2022/11/04 04:14:52;;;;;;;43.97;19.08;;;10.00;99.90;;;;;;5051529;28;20124;-46
2022/11/04 04:17:38;;;;;;;40.15;18.58;;;10.00;99.90;;;;;;5048713;28;20017;-47
2022/11/04 04:20:08;;;;;;;41.78;18.75;;;10.00;99.90;;;;;;5043480;28;20280;-47
2022/11/04 04:22:54;;;;;;;40.53;17.80;;;10.00;99.90;;;;;;5051650;28;20017;-47
2022/11/04 04:28:09;;;;;;;51.00;20.02;;;10.00;99.90;;;;;;5051964;28;20036;-48
2022/11/04 04:30:35;;;;;;;37.95;16.77;;;10.10;99.90;;;;;;5049099;28;20483;-48
2022/11/04 04:33:10;;;;;;;44.03;17.95;;;10.10;99.90;;;;;;5019428;28;20471;-47
2022/11/04 04:36:03;;;;;;;33.47;16.50;;;10.20;99.90;;;;;;5033527;28;20028;-47
2022/11/04 04:47:18;;;;;;;24.77;12.27;;;10.30;99.90;;;;;;5034752;28;20065;-50
2022/11/04 04:49:55;;;;;;;22.27;11.60;;;10.30;99.90;;;;;;5031147;28;20100;-47
2022/11/04 04:52:23;;;;;;;27.70;11.40;;;10.30;99.90;;;;;;5030882;28;20075;-49
2022/11/04 04:54:48;;;;;;;18.48;11.40;;;10.40;99.90;;;;;;5031300;28;20112;-47
2022/11/04 04:57:14;;;;;;;21.48;11.02;;;10.30;99.90;;;;;;5030845;28;20116;-48
2022/11/04 04:59:39;;;;;;;25.42;11.52;;;10.30;99.90;;;;;;5030986;28;20081;-49
2022/11/04 05:02:05;;;;;;;18.35;10.63;;;10.30;99.90;;;;;;5024324;28;20104;-46
2022/11/04 05:04:30;;;;;;;24.17;10.40;;;10.30;99.90;;;;;;5010628;28;20475;-46
2022/11/04 05:06:56;;;;;;;22.85;10.50;;;10.30;99.90;;;;;;5011263;28;20080;-46
2022/11/04 05:09:21;;;;;;;20.15;9.25;;;10.40;99.90;;;;;;5027907;28;20049;-46
2022/11/04 05:11:47;;;;;;;19.08;10.50;;;10.40;99.90;;;;;;5014087;28;20068;-46
2022/11/04 05:14:12;;;;;;;18.08;9.35;;;10.30;99.90;;;;;;5021106;28;20137;-49
2022/11/04 05:16:38;;;;;;;20.30;10.35;;;10.30;99.90;;;;;;5022442;28;20039;-48
2022/11/04 05:19:03;;;;;;;17.85;9.25;;;10.40;99.90;;;;;;5028368;28;20047;-47
2022/11/04 05:21:29;;;;;;;18.92;9.82;;;10.30;99.90;;;;;;5024371;28;20037;-46
2022/11/04 05:23:54;;;;;;;15.43;9.35;;;10.30;99.90;;;;;;5012796;28;20025;-46
2022/11/04 05:26:20;;;;;;;14.35;8.75;;;10.30;99.90;;;;;;5019670;28;20034;-46
2022/11/04 05:28:45;;;;;;;17.40;9.88;;;10.30;99.90;;;;;;5023860;28;20133;-47
2022/11/04 05:31:11;;;;;;;20.88;9.18;;;10.20;99.90;;;;;;5023717;28;20021;-47
2022/11/04 05:33:36;;;;;;;14.50;8.15;;;10.20;99.90;;;;;;5021311;28;20033;-46
2022/11/04 05:36:10;;;;;;;12.15;8.05;;;10.20;99.90;;;;;;5018767;28;20036;-46
2022/11/04 05:38:36;;;;;;;15.05;10.60;;;10.20;99.90;;;;;;5022387;28;20033;-46
2022/11/04 05:41:02;;;;;;;15.82;9.85;;;10.10;99.90;;;;;;5023332;28;20052;-46
2022/11/04 05:43:28;;;;;;;14.82;9.77;;;10.00;99.90;;;;;;5028146;28;20026;-46
2022/11/04 05:45:54;;;;;;;21.48;9.77;;;10.00;99.90;;;;;;5021845;28;20033;-46
2022/11/04 05:48:19;;;;;;;15.48;10.52;;;9.90;99.90;;;;;;5023401;28;20056;-46
2022/11/04 05:50:45;;;;;;;17.38;10.40;;;9.90;99.90;;;;;;5020364;28;20504;-46
2022/11/04 05:53:10;;;;;;;19.27;12.10;;;9.90;99.90;;;;;;5022348;28;20033;-48
2022/11/04 05:55:36;;;;;;;14.40;10.82;;;9.90;99.90;;;;;;5010158;28;20107;-46
2022/11/04 05:58:01;;;;;;;14.77;11.02;;;9.80;99.90;;;;;;5010457;28;20050;-46
2022/11/04 06:00:27;;;;;;;15.32;11.25;;;9.80;99.90;;;;;;5010419;28;20606;-47
2022/11/04 06:02:56;;;;;;;13.43;10.95;;;9.80;99.90;;;;;;5010048;28;20028;-47
2022/11/04 06:05:21;;;;;;;14.05;10.80;;;9.80;99.90;;;;;;5009883;28;20072;-46
2022/11/04 06:07:47;;;;;;;14.32;10.73;;;9.80;99.90;;;;;;5010231;28;20423;-45
2022/11/04 06:10:12;;;;;;;15.40;11.38;;;9.70;99.90;;;;;;5010082;28;20052;-47
2022/11/04 06:12:38;;;;;;;15.68;10.55;;;9.70;99.90;;;;;;5010632;28;20029;-46
2022/11/04 06:15:04;;;;;;;21.98;12.23;;;9.70;99.90;;;;;;5011359;28;20038;-46
2022/11/04 06:17:29;;;;;;;13.10;10.23;;;9.70;99.90;;;;;;5021243;28;20029;-48
2022/11/04 06:19:55;;;;;;;15.23;9.68;;;9.60;99.90;;;;;;5042521;28;20027;-45
2022/11/04 06:22:20;;;;;;;15.75;11.15;;;9.60;99.90;;;;;;5050422;28;20029;-49
2022/11/04 06:24:46;;;;;;;15.43;10.48;;;9.60;99.90;;;;;;5049987;28;20029;-49
2022/11/04 06:27:12;;;;;;;14.18;9.90;;;9.50;99.90;;;;;;5050919;28;20025;-46
2022/11/04 06:29:41;;;;;;;13.82;10.48;;;9.50;99.90;;;;;;5049200;28;20032;-47
2022/11/04 06:32:11;;;;;;;17.23;10.55;;;9.60;99.90;;;;;;5039754;28;20025;-46
2022/11/04 06:34:37;;;;;;;15.38;10.68;;;9.50;99.90;;;;;;5050604;28;20021;-46
2022/11/04 06:37:03;;;;;;;18.58;11.00;;;9.50;99.90;;;;;;5032781;28;20082;-46
2022/11/04 06:39:28;;;;;;;14.18;10.30;;;9.50;99.90;;;;;;5050043;28;20029;-45
2022/11/04 06:41:54;;;;;;;13.65;11.02;;;9.40;99.90;;;;;;5049839;28;20029;-46
2022/11/04 06:44:19;;;;;;;12.05;9.88;;;9.40;99.90;;;;;;5023684;28;20053;-46
2022/11/04 06:46:45;;;;;;;14.57;10.40;;;9.30;99.90;;;;;;5028023;28;20021;-46
2022/11/04 06:49:13;;;;;;;16.27;10.55;;;9.40;99.90;;;;;;5042167;28;20036;-47
2022/11/04 06:51:38;;;;;;;16.10;9.88;;;9.40;99.90;;;;;;5049656;28;20064;-46
2022/11/04 06:54:04;;;;;;;18.45;10.23;;;9.40;99.90;;;;;;5036307;28;20483;-48
2022/11/04 06:56:29;;;;;;;17.77;11.15;;;9.30;99.90;;;;;;5010567;28;20095;-46
2022/11/04 06:58:55;;;;;;;14.75;10.25;;;9.30;99.90;;;;;;5009948;28;20026;-45
2022/11/04 07:01:24;;;;;;;16.38;10.52;;;9.30;99.90;;;;;;5008349;28;20030;-45
2022/11/04 07:03:54;;;;;;;17.35;11.93;;;9.30;99.90;;;;;;5009239;28;20472;-46
2022/11/04 07:06:20;;;;;;;15.05;11.40;;;9.40;99.90;;;;;;5009565;28;20061;-45
2022/11/04 07:08:50;;;;;;;15.60;10.77;;;9.40;99.90;;;;;;5009605;28;20057;-47
2022/11/04 07:11:20;;;;;;;18.98;11.20;;;9.40;99.90;;;;;;5008869;28;20026;-47
2022/11/04 07:13:47;;;;;;;14.13;10.05;;;9.40;99.90;;;;;;5008580;28;20029;-46
2022/11/04 07:16:14;;;;;;;13.52;10.73;;;9.50;99.90;;;;;;5016201;28;20032;-47
2022/11/04 07:18:39;;;;;;;12.95;9.93;;;9.50;99.90;;;;;;5039641;28;20075;-49
2022/11/04 07:21:05;;;;;;;14.15;10.23;;;9.40;99.90;;;;;;5040458;28;20033;-49
2022/11/04 07:23:31;;;;;;;13.30;9.88;;;9.50;99.90;;;;;;5048532;28;20024;-46
2022/11/04 07:26:06;;;;;;;12.07;9.93;;;9.60;99.90;;;;;;5048276;28;20542;-46
2022/11/04 07:28:33;;;;;;;11.05;9.43;;;9.60;99.90;;;;;;5048542;28;20506;-46
2022/11/04 07:30:59;;;;;;;12.48;9.55;;;9.50;99.90;;;;;;5048551;28;20037;-46
2022/11/04 07:33:25;;;;;;;11.75;9.00;;;9.60;99.90;;;;;;5047812;28;20639;-46
2022/11/04 07:35:52;;;;;;;12.38;8.35;;;9.60;99.90;;;;;;5050077;28;20489;-46
2022/11/04 07:38:18;;;;;;;9.85;8.35;;;9.60;99.90;;;;;;5052933;28;20032;-46
2022/11/04 07:40:43;;;;;;;9.68;8.25;;;9.40;99.90;;;;;;5053138;28;20061;-46
2022/11/04 07:43:09;;;;;;;10.77;8.10;;;9.40;99.90;;;;;;5052566;28;20029;-47
2022/11/04 07:45:34;;;;;;;14.45;8.38;;;9.50;99.90;;;;;;5052645;28;20276;-46
2022/11/04 07:48:00;;;;;;;9.30;8.35;;;9.50;99.90;;;;;;5025323;28;20049;-48
2022/11/04 07:50:25;;;;;;;7.80;7.00;;;9.50;99.90;;;;;;5040050;28;20028;-48
2022/11/04 07:52:51;;;;;;;13.50;9.40;;;9.60;99.90;;;;;;5031766;28;20025;-46
2022/11/04 07:55:17;;;;;;;8.05;7.07;;;9.60;99.90;;;;;;5031849;28;20076;-46
2022/11/04 07:57:45;;;;;;;10.65;8.48;;;9.70;99.90;;;;;;5032049;28;20029;-46
2022/11/04 08:00:11;;;;;;;11.40;7.45;;;9.70;99.90;;;;;;5032196;28;20075;-47
2022/11/04 08:02:36;;;;;;;8.40;7.55;;;9.70;99.90;;;;;;5031651;28;20592;-45
2022/11/04 08:05:02;;;;;;;9.27;7.43;;;9.80;99.90;;;;;;5014497;28;20037;-46
2022/11/04 08:07:27;;;;;;;10.30;8.50;;;9.70;99.90;;;;;;5032060;28;20119;-47
2022/11/04 08:09:53;;;;;;;13.88;7.65;;;9.70;99.90;;;;;;5032102;28;20386;-46
2022/11/04 08:12:22;;;;;;;11.25;7.70;;;9.70;99.90;;;;;;5031583;28;20026;-45
2022/11/04 08:14:48;;;;;;;9.57;7.28;;;9.60;99.90;;;;;;5031946;28;20029;-47
2022/11/04 08:17:13;;;;;;;9.07;7.55;;;9.70;99.90;;;;;;5032155;28;20029;-47
2022/11/04 08:19:39;;;;;;;15.30;7.05;;;9.80;99.90;;;;;;5040336;28;20036;-47
2022/11/04 08:22:04;;;;;;;10.90;6.50;;;9.70;99.90;;;;;;5049654;28;20029;-45
2022/11/04 08:24:30;;;;;;;8.77;5.15;;;9.80;99.90;;;;;;5033809;28;20029;-45
2022/11/04 08:26:55;;;;;;;6.50;5.72;;;9.90;99.90;;;;;;5051854;28;20017;-45
2022/11/04 08:29:21;;;;;;;6.00;4.90;;;10.00;99.90;;;;;;5051592;28;20029;-46
2022/11/04 08:31:47;;;;;;;5.10;4.60;;;10.20;99.90;;;;;;5033214;28;20036;-45
2022/11/04 08:34:13;;;;;;;9.75;5.53;;;10.20;99.90;;;;;;5051294;28;20052;-45
2022/11/04 08:36:42;;;;;;;8.50;4.63;;;10.20;99.90;;;;;;5051484;28;20027;-48
2022/11/04 08:39:08;;;;;;;11.07;5.00;;;10.20;99.90;;;;;;5051413;28;20064;-46
2022/11/04 08:41:35;;;;;;;7.18;4.53;;;10.20;99.90;;;;;;5051007;28;20108;-46
2022/11/04 08:44:03;;;;;;;7.32;5.32;;;10.30;99.90;;;;;;5050713;28;20486;-45
2022/11/04 08:46:32;;;;;;;7.38;4.30;;;10.40;99.90;;;;;;5033546;28;20024;-45
2022/11/04 08:48:57;;;;;;;7.03;4.15;;;10.50;99.90;;;;;;5042847;28;20112;-46
2022/11/04 08:51:25;;;;;;;8.98;3.85;;;10.60;99.90;;;;;;5042895;28;20521;-45
2022/11/04 08:53:51;;;;;;;6.00;4.57;;;10.60;99.90;;;;;;5051085;28;20108;-47
2022/11/04 08:56:27;;;;;;;9.02;4.55;;;10.60;99.90;;;;;;5051321;28;20179;-45
2022/11/04 08:58:53;;;;;;;9.93;4.70;;;10.80;99.90;;;;;;5051278;28;20041;-45
2022/11/04 09:01:20;;;;;;;5.70;4.05;;;10.80;99.90;;;;;;5050648;28;20033;-45
2022/11/04 09:03:46;;;;;;;10.80;4.78;;;10.90;99.90;;;;;;5050616;28;20454;-46
2022/11/04 09:06:18;;;;;;;10.65;4.35;;;10.90;99.90;;;;;;5050960;28;20049;-46
2022/11/04 09:08:43;;;;;;;6.13;3.92;;;11.00;99.90;;;;;;5050885;28;20090;-46
2022/11/04 09:11:12;;;;;;;5.78;4.15;;;11.00;99.90;;;;;;5050951;28;20029;-45
2022/11/04 09:13:38;;;;;;;6.75;4.70;;;11.10;99.90;;;;;;5050669;28;20459;-45
2022/11/04 09:16:04;;;;;;;6.65;4.10;;;11.20;99.90;;;;;;5033074;28;20025;-45
2022/11/04 09:18:30;;;;;;;8.00;4.68;;;11.20;99.90;;;;;;5040927;28;20029;-46
2022/11/04 09:21:03;;;;;;;7.03;4.28;;;11.20;99.90;;;;;;5038645;28;20033;-47
2022/11/04 09:23:29;;;;;;;7.70;4.22;;;11.20;99.90;;;;;;5010664;28;20053;-45
2022/11/04 09:25:57;;;;;;;5.93;4.20;;;11.20;99.90;;;;;;5014794;28;20013;-45
2022/11/04 09:28:23;;;;;;;7.72;4.00;;;11.30;99.90;;;;;;5030698;28;20020;-45
2022/11/04 09:30:49;;;;;;;7.60;4.75;;;11.30;99.90;;;;;;5030541;28;20021;-45
2022/11/04 09:33:15;;;;;;;7.40;4.13;;;11.30;99.90;;;;;;5037579;28;20515;-45
2022/11/04 09:35:40;;;;;;;8.52;4.63;;;11.30;99.90;;;;;;5044719;28;20040;-45
2022/11/04 09:38:06;;;;;;;11.98;4.20;;;11.30;99.90;;;;;;5032343;28;20032;-45
2022/11/04 09:40:34;;;;;;;11.57;4.10;;;11.30;99.90;;;;;;5050353;28;20085;-45
2022/11/04 09:43:27;;;;;;;6.93;4.05;;;11.30;99.90;;;;;;5049941;28;20151;-45
2022/11/04 09:45:55;;;;;;;8.23;3.97;;;11.40;99.90;;;;;;5050051;28;20028;-45
2022/11/04 09:48:44;;;;;;;7.65;3.80;;;11.40;99.90;;;;;;5027022;28;20474;-47
2022/11/04 09:51:10;;;;;;;7.07;3.78;;;11.40;99.90;;;;;;5023550;28;20463;-46
2022/11/04 09:53:42;;;;;;;7.80;4.25;;;11.40;99.90;;;;;;5011221;28;20034;-46
2022/11/04 09:56:31;;;;;;;7.20;4.15;;;11.50;99.90;;;;;;5010907;28;20073;-45
2022/11/04 09:58:56;;;;;;;5.63;3.67;;;11.60;99.90;;;;;;5009651;28;20037;-47
2022/11/04 10:01:37;;;;;;;7.68;3.60;;;11.60;99.90;;;;;;5010560;28;20072;-45
2022/11/04 10:04:20;;;;;;;11.13;4.00;;;11.80;99.90;;;;;;5027446;28;20064;-45
2022/11/04 10:07:24;;;;;;;5.50;4.13;;;11.90;99.90;;;;;;5051022;28;20386;-48
2022/11/04 10:10:16;;;;;;;7.57;3.50;;;12.10;99.90;;;;;;5050487;28;20096;-46
2022/11/04 10:13:18;;;;;;;6.65;3.42;;;12.30;99.90;;;;;;5049455;28;20467;-45
2022/11/04 10:16:09;;;;;;;8.57;3.25;;;12.70;99.90;;;;;;5049564;28;20033;-48
2022/11/04 10:18:59;;;;;;;6.60;2.90;;;13.10;99.90;;;;;;5047410;28;20029;-45
2022/11/04 10:21:48;;;;;;;8.50;3.38;;;13.50;99.90;;;;;;5029782;28;20435;-45
2022/11/04 10:24:37;;;;;;;7.15;3.03;;;13.70;99.90;;;;;;5029824;28;20048;-45
2022/11/04 10:27:08;;;;;;;6.05;3.22;;;13.90;99.90;;;;;;5029674;28;20049;-45
2022/11/04 10:29:55;;;;;;;5.55;3.38;;;13.90;99.90;;;;;;5011809;28;20218;-46
2022/11/04 10:32:31;;;;;;;6.25;2.88;;;14.20;99.90;;;;;;5029320;28;20022;-45
2022/11/04 10:35:22;;;;;;;7.15;3.08;;;14.50;99.90;;;;;;5029144;28;20013;-46
2022/11/04 10:37:52;;;;;;;8.98;3.85;;;14.60;99.90;;;;;;5028865;28;20544;-45
2022/11/04 10:40:28;;;;;;;6.32;3.40;;;14.80;99.90;;;;;;5029131;28;20220;-46
2022/11/04 10:42:56;;;;;;;5.63;3.25;;;14.40;99.90;;;;;;5028993;28;20380;-46
2022/11/04 10:45:33;;;;;;;10.73;3.65;;;14.30;99.90;;;;;;5029618;28;20028;-47
2022/11/04 10:48:15;;;;;;;7.95;3.95;;;14.30;99.90;;;;;;5029239;28;20087;-48
2022/11/04 10:50:54;;;;;;;10.23;4.13;;;14.10;99.90;;;;;;5036840;28;20025;-46
2022/11/04 10:53:24;;;;;;;7.53;4.15;;;13.70;99.90;;;;;;5048353;28;20071;-45
2022/11/04 10:56:18;;;;;;;7.80;3.80;;;13.50;99.90;;;;;;5048675;28;20025;-45
2022/11/04 10:58:47;;;;;;;10.63;4.68;;;13.30;99.90;;;;;;5048507;28;20059;-48
2022/11/04 11:01:23;;;;;;;10.68;4.88;;;13.10;99.90;;;;;;5030847;28;20032;-46
2022/11/04 11:03:49;;;;;;;10.48;4.55;;;13.00;99.90;;;;;;5048648;28;20025;-47
2022/11/04 11:06:32;;;;;;;7.90;4.30;;;12.80;99.90;;;;;;5048434;28;20032;-45
2022/11/04 11:09:00;;;;;;;6.55;4.35;;;12.70;99.90;;;;;;5048940;28;20127;-46
2022/11/04 11:11:38;;;;;;;11.25;4.22;;;12.60;99.90;;;;;;5047943;28;20025;-46
2022/11/04 11:14:04;;;;;;;7.40;4.15;;;12.50;99.90;;;;;;5049066;28;20371;-46
2022/11/04 11:16:30;;;;;;;9.90;5.13;;;12.40;99.90;;;;;;5048845;28;20036;-46
2022/11/04 11:19:11;;;;;;;7.85;4.10;;;12.30;99.90;;;;;;5043580;28;20028;-48
2022/11/04 11:21:44;;;;;;;8.48;4.43;;;12.20;99.90;;;;;;5036300;28;20101;-45
2022/11/04 11:24:17;;;;;;;8.10;4.13;;;12.30;99.90;;;;;;5028547;28;20029;-45
2022/11/04 11:26:49;;;;;;;10.48;4.15;;;12.30;99.90;;;;;;5025681;28;20022;-45
2022/11/04 11:29:39;;;;;;;10.52;4.30;;;12.50;99.90;;;;;;5025266;28;20112;-47
2022/11/04 11:32:15;;;;;;;5.93;3.63;;;12.60;99.90;;;;;;5028136;28;20429;-46
2022/11/04 11:34:45;;;;;;;4.78;3.92;;;12.50;99.90;;;;;;5034605;28;20025;-46
2022/11/04 11:37:21;;;;;;;7.97;3.78;;;12.40;99.90;;;;;;5040668;28;20474;-45
2022/11/04 11:39:46;;;;;;;6.65;4.07;;;12.40;99.90;;;;;;5046656;28;20079;-46
2022/11/04 11:42:17;;;;;;;9.82;3.60;;;12.50;99.90;;;;;;5029218;28;20022;-45
2022/11/04 11:44:53;;;;;;;7.18;3.70;;;12.50;99.90;;;;;;5021742;28;20024;-45
2022/11/04 11:47:35;;;;;;;6.05;3.67;;;12.50;99.90;;;;;;5019996;28;20029;-45
2022/11/04 11:50:15;;;;;;;5.30;3.78;;;12.60;99.90;;;;;;5029686;28;20036;-47
2022/11/04 11:52:42;;;;;;;6.20;3.95;;;12.60;99.90;;;;;;5026171;28;20037;-45
2022/11/04 11:55:25;;;;;;;5.10;3.58;;;12.60;99.90;;;;;;5021772;28;20127;-46
2022/11/04 11:58:21;;;;;;;11.90;3.85;;;12.60;99.90;;;;;;5022940;28;20027;-46
2022/11/04 12:00:59;;;;;;;5.15;3.40;;;12.50;99.90;;;;;;5017823;28;20441;-45
2022/11/04 12:03:34;;;;;;;8.23;3.72;;;12.50;99.90;;;;;;5018086;28;20606;-45
2022/11/04 12:06:20;;;;;;;9.55;4.00;;;12.60;99.90;;;;;;5030257;28;20091;-46
2022/11/04 12:09:10;;;;;;;6.40;4.07;;;12.70;99.90;;;;;;5013023;28;20018;-44
2022/11/04 12:11:51;;;;;;;8.07;3.60;;;12.80;99.90;;;;;;5018064;28;20495;-46
2022/11/04 12:14:45;;;;;;;7.88;3.88;;;12.90;99.90;;;;;;5021615;28;20051;-45
2022/11/04 12:17:48;;;;;;;12.50;4.15;;;12.90;99.90;;;;;;5016159;28;20061;-48
2022/11/04 12:20:44;;;;;;;11.60;4.32;;;13.00;99.90;;;;;;5019175;28;20652;-46
2022/11/04 12:23:36;;;;;;;5.35;3.25;;;13.00;99.90;;;;;;5013760;28;20037;-45
2022/11/04 12:26:23;;;;;;;4.90;3.88;;;13.10;99.90;;;;;;5031192;28;20052;-45
2022/11/04 12:29:20;;;;;;;6.60;3.55;;;13.00;99.90;;;;;;5030273;28;20483;-46
2022/11/04 12:32:13;;;;;;;7.65;3.80;;;12.90;99.90;;;;;;5016228;28;20022;-45
2022/11/04 12:35:07;;;;;;;6.07;3.80;;;12.80;99.90;;;;;;5027383;28;20040;-45
2022/11/04 12:38:00;;;;;;;4.93;3.67;;;12.90;99.90;;;;;;5017130;28;20025;-45
2022/11/04 12:40:52;;;;;;;6.30;3.75;;;12.80;99.90;;;;;;5026283;28;20021;-45
2022/11/04 12:43:34;;;;;;;5.72;3.42;;;12.80;99.90;;;;;;5026375;28;20025;-46
2022/11/04 12:46:15;;;;;;;4.85;3.35;;;12.80;99.90;;;;;;5017073;28;20028;-47
2022/11/04 12:49:11;;;;;;;7.13;3.40;;;12.90;99.90;;;;;;5018177;28;20026;-45
2022/11/04 12:51:57;;;;;;;4.78;3.00;;;12.90;99.90;;;;;;5017766;28;20029;-47
2022/11/04 12:54:32;;;;;;;7.13;3.65;;;13.00;99.90;;;;;;5026364;28;20022;-45
2022/11/04 12:57:18;;;;;;;3.20;2.90;;;13.00;99.90;;;;;;5026005;28;20052;-47
2022/11/04 13:00:07;;;;;;;7.82;3.05;;;13.00;99.90;;;;;;5012755;28;20035;-48
2022/11/04 13:02:38;;;;;;;9.02;4.43;;;13.00;99.90;;;;;;5025861;28;20060;-47
2022/11/04 13:05:25;;;;;;;5.97;3.63;;;13.00;99.90;;;;;;5026858;28;20440;-45
2022/11/04 13:07:56;;;;;;;9.65;4.00;;;13.20;99.90;;;;;;5032526;28;20038;-45
2022/11/04 13:10:27;;;;;;;4.25;2.80;;;13.20;99.90;;;;;;5013548;28;20486;-46
2022/11/04 13:12:55;;;;;;;3.88;2.45;;;13.30;99.90;;;;;;5030815;28;20044;-46
2022/11/04 13:15:27;;;;;;;3.05;2.72;;;13.30;99.90;;;;;;5031275;28;20387;-46
2022/11/04 13:17:59;;;;;;;5.65;2.72;;;13.20;99.90;;;;;;5028825;28;20014;-45
2022/11/04 13:20:26;;;;;;;6.65;2.90;;;13.30;99.90;;;;;;5020724;28;20026;-45
2022/11/04 13:22:56;;;;;;;3.20;2.78;;;13.20;99.90;;;;;;5020605;28;20031;-48
2022/11/04 13:25:29;;;;;;;4.80;2.70;;;13.20;99.90;;;;;;5018234;28;20556;-45
2022/11/04 13:27:56;;;;;;;6.38;2.97;;;13.20;99.90;;;;;;5019071;28;20264;-45
2022/11/04 13:30:35;;;;;;;4.90;2.47;;;13.20;99.90;;;;;;5019318;28;20509;-45
2022/11/04 13:33:07;;;;;;;5.50;3.00;;;13.10;99.90;;;;;;5019158;28;20361;-46
2022/11/04 13:35:48;;;;;;;5.75;3.25;;;13.00;99.90;;;;;;5020047;28;20037;-45